Time;durP1;ratioP1;P1;durP2;ratioP2;P2;SDS_P1;SDS_P2;PMS_P1;PMS_P2;Temp;Humidity;BMP_temperature;BMP_pressure;BME280_temperature;BME280_humidity;BME280_pressure;Samples;Min_cycle;Max_cycle;Signal;HPM_P1;HPM_P2
2022/07/31 00:00:32;;;;;;;50.17;31.15;;;27.30;99.90;;;;;;5076273;28;20029;-67
2022/07/31 00:02:58;;;;;;;54.83;34.70;;;27.30;99.90;;;;;;5076306;28;20397;-69
2022/07/31 00:05:25;;;;;;;298.40;212.82;;;27.30;99.90;;;;;;5076379;28;20017;-69
2022/07/31 00:07:54;;;;;;;161.05;100.45;;;27.30;99.90;;;;;;5076312;28;20099;-69
2022/07/31 00:10:20;;;;;;;154.32;96.15;;;27.30;99.90;;;;;;5076266;28;20477;-70
2022/07/31 00:12:47;;;;;;;195.02;116.00;;;27.40;99.90;;;;;;5076178;28;20078;-68
2022/07/31 00:15:14;;;;;;;120.80;76.30;;;27.40;99.90;;;;;;5076247;28;20025;-67
2022/07/31 00:17:41;;;;;;;106.10;65.53;;;27.40;99.90;;;;;;5076154;28;20029;-68
2022/07/31 00:20:12;;;;;;;148.13;90.13;;;27.40;99.90;;;;;;5076075;28;20124;-67
2022/07/31 00:22:41;;;;;;;138.63;86.88;;;27.40;99.90;;;;;;5076370;28;20055;-68
2022/07/31 00:25:08;;;;;;;85.53;60.35;;;27.40;99.90;;;;;;5076166;28;20435;-68
2022/07/31 00:27:35;;;;;;;135.35;86.95;;;27.40;99.90;;;;;;5076035;28;20052;-69
2022/07/31 00:30:02;;;;;;;130.30;87.43;;;27.40;99.90;;;;;;5075690;28;20020;-66
2022/07/31 00:32:29;;;;;;;101.88;67.75;;;27.40;99.90;;;;;;5075851;28;20024;-69
2022/07/31 00:34:55;;;;;;;93.35;66.72;;;27.40;99.90;;;;;;5075797;28;20021;-70
2022/07/31 00:37:22;;;;;;;135.45;95.20;;;27.40;99.90;;;;;;5075776;28;20385;-67
2022/07/31 00:39:48;;;;;;;63.50;41.05;;;27.40;99.90;;;;;;5075702;28;20032;-68
2022/07/31 00:42:20;;;;;;;48.80;28.45;;;27.40;99.90;;;;;;5075855;28;20157;-66
2022/07/31 00:44:46;;;;;;;49.47;28.77;;;27.40;99.90;;;;;;5075723;28;20078;-65
2022/07/31 00:47:13;;;;;;;38.55;25.75;;;27.30;99.90;;;;;;5075786;28;20041;-67
2022/07/31 00:49:40;;;;;;;42.35;24.70;;;27.30;99.90;;;;;;5075790;28;20074;-67
2022/07/31 00:52:06;;;;;;;36.70;23.35;;;27.30;99.90;;;;;;5075430;28;20032;-67
2022/07/31 00:54:33;;;;;;;37.17;25.50;;;27.30;99.90;;;;;;5075414;28;20032;-69
2022/07/31 00:57:00;;;;;;;214.20;134.05;;;27.40;99.90;;;;;;5075455;28;20024;-67
2022/07/31 00:59:27;;;;;;;102.60;64.95;;;27.40;99.90;;;;;;5075375;28;20056;-67
2022/07/31 01:01:55;;;;;;;148.25;95.22;;;27.40;99.90;;;;;;5069250;28;20032;-67
2022/07/31 01:04:22;;;;;;;125.85;81.53;;;27.40;99.90;;;;;;5062860;28;20371;-68
2022/07/31 01:06:48;;;;;;;70.00;48.63;;;27.40;99.90;;;;;;5072328;28;20044;-67
2022/07/31 01:09:16;;;;;;;40.15;26.75;;;27.40;99.90;;;;;;5075245;28;20012;-67
2022/07/31 01:11:47;;;;;;;33.53;21.63;;;27.40;99.90;;;;;;5075521;28;20458;-66
2022/07/31 01:14:15;;;;;;;36.58;26.83;;;27.40;99.90;;;;;;5075153;28;20461;-66
2022/07/31 01:16:46;;;;;;;37.67;24.05;;;27.40;99.90;;;;;;5074918;28;20020;-67
2022/07/31 01:19:30;;;;;;;32.38;21.25;;;27.50;99.90;;;;;;5074925;28;20077;-67
2022/07/31 01:22:13;;;;;;;34.53;23.92;;;27.50;99.90;;;;;;5074702;28;20056;-68
2022/07/31 01:25:01;;;;;;;35.42;24.00;;;27.60;99.90;;;;;;5074629;28;20032;-66
2022/07/31 01:27:36;;;;;;;38.10;25.33;;;27.50;99.90;;;;;;5050233;28;20532;-67
2022/07/31 01:30:04;;;;;;;35.60;23.50;;;27.50;99.90;;;;;;5074659;28;20072;-67
2022/07/31 01:32:35;;;;;;;36.22;22.65;;;27.50;99.90;;;;;;5075023;28;20131;-67
2022/07/31 01:35:07;;;;;;;124.63;100.45;;;27.60;99.90;;;;;;5074606;28;20025;-69
2022/07/31 01:37:40;;;;;;;100.38;75.68;;;27.70;99.90;;;;;;5069170;28;20040;-65
2022/07/31 01:40:13;;;;;;;54.55;40.22;;;27.80;99.90;;;;;;5063652;28;20402;-66
2022/07/31 01:42:43;;;;;;;54.92;37.50;;;27.80;99.90;;;;;;5062846;28;20018;-65
2022/07/31 01:45:13;;;;;;;52.00;32.45;;;27.80;99.90;;;;;;5063311;28;20020;-65
2022/07/31 01:47:42;;;;;;;36.35;22.92;;;27.90;99.90;;;;;;5064526;28;20044;-64
2022/07/31 01:50:09;;;;;;;32.53;21.90;;;27.90;99.90;;;;;;5064003;28;20491;-64
2022/07/31 01:52:37;;;;;;;35.17;24.23;;;27.90;99.90;;;;;;5062267;28;20032;-65
2022/07/31 01:55:05;;;;;;;32.80;23.58;;;27.90;99.90;;;;;;5062895;28;20104;-64
2022/07/31 01:57:33;;;;;;;32.30;22.10;;;28.00;99.90;;;;;;5063405;28;20025;-65
2022/07/31 02:00:03;;;;;;;27.23;18.52;;;28.00;99.90;;;;;;5065085;28;20020;-64
2022/07/31 02:02:31;;;;;;;28.77;17.23;;;28.00;99.90;;;;;;5063828;28;20025;-66
2022/07/31 02:04:58;;;;;;;54.22;33.28;;;28.00;99.90;;;;;;5062414;28;20108;-68
2022/07/31 02:07:25;;;;;;;150.38;91.57;;;28.10;99.90;;;;;;5064298;28;20017;-66
2022/07/31 02:09:52;;;;;;;70.63;41.40;;;28.20;99.90;;;;;;5063755;28;20024;-67
2022/07/31 02:12:20;;;;;;;44.20;24.65;;;28.20;99.90;;;;;;5062487;28;20470;-68
2022/07/31 02:14:47;;;;;;;29.13;16.52;;;28.30;99.90;;;;;;5063057;28;20024;-68
2022/07/31 02:17:14;;;;;;;22.42;16.13;;;28.30;99.90;;;;;;5063882;28;20086;-65
2022/07/31 02:19:41;;;;;;;30.08;17.45;;;28.40;99.90;;;;;;5065909;28;20039;-67
2022/07/31 02:22:08;;;;;;;28.33;17.38;;;28.40;99.90;;;;;;5065859;28;20055;-66
2022/07/31 02:24:34;;;;;;;38.28;19.73;;;28.40;99.90;;;;;;5066114;28;20428;-65
2022/07/31 02:27:02;;;;;;;25.88;18.33;;;28.50;99.90;;;;;;5065688;28;20043;-65
2022/07/31 02:29:31;;;;;;;31.20;21.55;;;28.50;99.90;;;;;;5065357;28;20083;-65
2022/07/31 02:31:59;;;;;;;31.38;23.17;;;28.50;99.90;;;;;;5065773;28;20036;-65
2022/07/31 02:34:27;;;;;;;42.35;26.20;;;28.50;99.90;;;;;;5065565;28;20028;-65
2022/07/31 02:36:55;;;;;;;41.72;27.35;;;28.60;99.90;;;;;;5066070;28;20020;-65
2022/07/31 02:39:23;;;;;;;43.38;29.65;;;28.60;99.90;;;;;;5065601;28;20033;-65
2022/07/31 02:41:51;;;;;;;59.03;32.17;;;28.60;99.90;;;;;;5058999;28;20029;-66
2022/07/31 02:44:19;;;;;;;116.95;93.20;;;28.70;99.90;;;;;;5060243;28;20025;-64
2022/07/31 02:46:46;;;;;;;55.22;42.80;;;28.70;99.90;;;;;;5059516;28;20487;-64
2022/07/31 02:49:13;;;;;;;65.05;48.65;;;28.80;99.90;;;;;;5060354;28;20023;-63
2022/07/31 02:51:41;;;;;;;44.60;30.20;;;28.80;99.90;;;;;;5060039;28;20028;-65
2022/07/31 02:54:07;;;;;;;44.30;31.95;;;28.80;99.90;;;;;;5059747;28;20024;-64
2022/07/31 02:56:35;;;;;;;62.95;45.80;;;28.80;99.90;;;;;;5060184;28;20211;-64
2022/07/31 02:59:02;;;;;;;68.50;46.30;;;28.90;99.90;;;;;;5061229;28;20021;-64
2022/07/31 03:01:34;;;;;;;80.50;55.88;;;28.90;99.90;;;;;;5061732;28;20024;-64
2022/07/31 03:04:01;;;;;;;71.10;46.40;;;29.00;99.90;;;;;;5061301;28;20027;-62
2022/07/31 03:06:28;;;;;;;338.15;239.88;;;29.10;99.90;;;;;;5063755;28;20029;-64
2022/07/31 03:08:54;;;;;;;57.63;39.88;;;29.20;99.90;;;;;;5063787;28;20446;-61
2022/07/31 03:11:21;;;;;;;42.30;29.98;;;29.20;99.90;;;;;;5064067;28;20027;-64
2022/07/31 03:13:48;;;;;;;43.80;26.52;;;29.20;99.90;;;;;;5061048;28;20029;-64
2022/07/31 03:16:15;;;;;;;39.35;25.80;;;29.30;99.90;;;;;;5061868;28;20508;-65
2022/07/31 03:18:42;;;;;;;36.38;21.10;;;29.30;99.90;;;;;;5063117;28;20029;-63
2022/07/31 03:21:10;;;;;;;27.80;19.60;;;29.30;99.90;;;;;;5067575;28;20029;-65
2022/07/31 03:23:38;;;;;;;29.60;19.77;;;29.40;99.90;;;;;;5065365;28;20374;-65
2022/07/31 03:26:05;;;;;;;30.63;18.70;;;29.40;99.90;;;;;;5061966;28;20584;-63
2022/07/31 03:28:34;;;;;;;30.35;16.85;;;29.40;99.90;;;;;;5066458;28;20020;-66
2022/07/31 03:31:01;;;;;;;24.52;16.58;;;29.50;99.90;;;;;;5067286;28;20024;-65
2022/07/31 03:33:28;;;;;;;28.30;17.98;;;29.60;99.90;;;;;;5065637;28;20028;-66
2022/07/31 03:35:55;;;;;;;35.50;18.70;;;29.60;99.90;;;;;;5065612;28;20104;-65
2022/07/31 03:38:22;;;;;;;28.85;17.15;;;29.80;99.90;;;;;;5067130;28;20099;-66
2022/07/31 03:40:48;;;;;;;24.55;16.20;;;29.90;99.90;;;;;;5066017;28;20017;-67
2022/07/31 03:43:16;;;;;;;27.60;18.48;;;29.90;99.90;;;;;;5069746;28;20036;-66
2022/07/31 03:45:45;;;;;;;34.53;18.10;;;30.00;99.90;;;;;;5067570;28;20024;-66
2022/07/31 03:48:12;;;;;;;40.10;16.02;;;29.90;99.90;;;;;;5066229;28;20167;-64
2022/07/31 03:50:40;;;;;;;43.75;23.17;;;29.90;99.90;;;;;;5064985;28;20048;-63
2022/07/31 03:53:08;;;;;;;35.35;21.98;;;30.00;99.90;;;;;;5065530;28;20060;-64
2022/07/31 03:55:38;;;;;;;36.03;18.42;;;30.00;99.90;;;;;;5062963;28;20028;-66
2022/07/31 03:58:05;;;;;;;30.95;18.05;;;30.00;99.90;;;;;;5062416;28;20032;-65
2022/07/31 04:00:33;;;;;;;25.38;16.88;;;30.10;99.90;;;;;;5064245;28;20113;-65
2022/07/31 04:03:06;;;;;;;26.20;18.02;;;30.30;99.90;;;;;;5064727;28;20033;-65
2022/07/31 04:05:33;;;;;;;38.50;21.58;;;30.40;99.90;;;;;;5064627;28;20112;-65
2022/07/31 04:07:59;;;;;;;40.33;24.48;;;30.40;99.90;;;;;;5067425;28;20024;-65
2022/07/31 04:10:26;;;;;;;29.55;19.85;;;30.40;99.90;;;;;;5065360;28;20073;-64
2022/07/31 04:12:52;;;;;;;25.77;17.30;;;30.50;99.90;;;;;;5066774;28;20497;-65
2022/07/31 04:15:19;;;;;;;28.73;20.17;;;30.60;99.90;;;;;;5063463;28;20036;-66
2022/07/31 04:17:46;;;;;;;32.08;20.02;;;30.50;99.90;;;;;;5069311;28;20036;-66
2022/07/31 04:20:12;;;;;;;32.08;19.08;;;30.60;99.90;;;;;;5070327;28;20016;-67
2022/07/31 04:22:39;;;;;;;32.65;19.58;;;30.70;99.90;;;;;;5066612;28;20037;-66
2022/07/31 04:25:06;;;;;;;29.17;20.10;;;30.80;99.90;;;;;;5065749;28;20024;-65
2022/07/31 04:27:35;;;;;;;28.75;17.73;;;30.70;99.90;;;;;;5065651;28;20020;-65
2022/07/31 04:30:01;;;;;;;33.85;19.17;;;30.90;99.90;;;;;;5064559;28;20070;-65
2022/07/31 04:32:28;;;;;;;62.05;37.10;;;31.00;99.90;;;;;;5065821;28;20035;-66
2022/07/31 04:34:54;;;;;;;49.35;32.85;;;31.00;99.90;;;;;;5063783;28;20025;-65
2022/07/31 04:37:21;;;;;;;41.40;27.02;;;30.90;99.90;;;;;;5070431;28;20013;-65
2022/07/31 04:39:48;;;;;;;76.10;53.78;;;30.90;99.90;;;;;;5063899;28;20027;-66
2022/07/31 04:42:14;;;;;;;46.17;31.92;;;30.80;99.90;;;;;;5065108;28;20028;-65
2022/07/31 04:44:41;;;;;;;101.88;70.07;;;30.80;99.90;;;;;;5065469;28;20020;-65
2022/07/31 04:47:08;;;;;;;42.15;29.50;;;30.90;99.90;;;;;;5063837;28;20067;-61
2022/07/31 04:49:35;;;;;;;40.63;29.55;;;30.90;99.90;;;;;;5065540;28;20109;-61
2022/07/31 04:52:01;;;;;;;25.92;16.75;;;30.90;99.90;;;;;;5066284;28;20078;-64
2022/07/31 04:54:28;;;;;;;295.20;226.63;;;30.90;99.90;;;;;;5064442;28;20428;-63
2022/07/31 04:56:55;;;;;;;195.98;131.20;;;30.90;99.90;;;;;;5065501;28;20102;-63
2022/07/31 04:59:22;;;;;;;44.33;19.48;;;30.80;99.90;;;;;;5065966;28;20032;-63
2022/07/31 05:01:50;;;;;;;34.78;22.23;;;30.70;99.90;;;;;;5064195;28;20071;-62
2022/07/31 05:04:18;;;;;;;42.30;27.23;;;30.70;99.90;;;;;;5065089;28;20021;-62
2022/07/31 05:06:52;;;;;;;35.35;22.65;;;30.60;99.90;;;;;;5066187;28;20020;-63
2022/07/31 05:09:22;;;;;;;27.15;18.08;;;30.50;99.90;;;;;;5066003;28;20079;-63
2022/07/31 05:11:49;;;;;;;30.17;15.85;;;30.50;99.90;;;;;;5046421;28;20021;-63
2022/07/31 05:14:18;;;;;;;27.55;17.77;;;30.50;99.90;;;;;;5068924;28;20020;-62
2022/07/31 05:16:45;;;;;;;33.38;19.70;;;30.50;99.90;;;;;;5068513;28;20064;-62
2022/07/31 05:19:11;;;;;;;30.92;19.60;;;30.40;99.90;;;;;;5064776;28;20099;-62
2022/07/31 05:21:38;;;;;;;87.82;21.42;;;30.40;99.90;;;;;;5064974;28;20051;-63
2022/07/31 05:24:05;;;;;;;60.47;21.90;;;30.40;99.90;;;;;;5066013;28;20095;-63
2022/07/31 05:26:32;;;;;;;49.40;27.38;;;30.40;99.90;;;;;;5064398;28;20063;-63
2022/07/31 05:28:59;;;;;;;34.42;21.27;;;30.40;99.90;;;;;;5064688;28;20020;-64
2022/07/31 05:31:27;;;;;;;40.47;22.30;;;30.40;99.90;;;;;;5065083;28;20056;-64
2022/07/31 05:33:53;;;;;;;33.85;20.48;;;30.50;99.90;;;;;;5064108;28;20469;-64
2022/07/31 05:36:20;;;;;;;42.67;22.05;;;30.50;99.90;;;;;;5063510;28;20073;-64
2022/07/31 05:38:47;;;;;;;39.83;22.77;;;30.60;99.90;;;;;;5065266;28;20025;-64
2022/07/31 05:41:14;;;;;;;33.75;17.05;;;30.60;99.90;;;;;;5061863;28;20048;-64
2022/07/31 05:43:43;;;;;;;28.35;18.30;;;30.60;99.90;;;;;;5069749;28;20084;-64
2022/07/31 05:46:12;;;;;;;38.22;19.55;;;30.70;99.90;;;;;;5054087;28;20518;-64
2022/07/31 05:48:40;;;;;;;22.98;14.10;;;30.70;99.90;;;;;;5056569;28;20136;-64
2022/07/31 05:51:11;;;;;;;18.73;13.05;;;30.70;99.90;;;;;;5064467;28;20028;-65
2022/07/31 05:53:39;;;;;;;20.33;12.85;;;30.70;99.90;;;;;;5064078;28;20064;-63
2022/07/31 05:56:05;;;;;;;22.65;15.13;;;30.70;99.90;;;;;;5062667;28;20079;-63
2022/07/31 05:58:33;;;;;;;20.60;14.00;;;30.70;99.90;;;;;;5062574;28;20033;-64
2022/07/31 06:01:01;;;;;;;22.38;13.90;;;30.60;99.90;;;;;;5062403;28;20073;-63
2022/07/31 06:03:28;;;;;;;19.83;13.75;;;30.60;99.90;;;;;;5062356;28;20336;-65
2022/07/31 06:05:55;;;;;;;22.00;14.45;;;30.70;99.90;;;;;;5063131;28;20070;-64
2022/07/31 06:08:22;;;;;;;18.67;12.80;;;30.90;99.90;;;;;;5064018;28;20031;-64
2022/07/31 06:10:49;;;;;;;18.63;13.70;;;31.00;99.90;;;;;;5065725;28;20058;-63
2022/07/31 06:13:15;;;;;;;19.75;12.77;;;31.10;99.90;;;;;;5066240;28;20020;-63
2022/07/31 06:15:42;;;;;;;23.30;13.32;;;31.20;99.90;;;;;;5063602;28;20093;-65
2022/07/31 06:18:09;;;;;;;24.83;13.88;;;31.30;99.90;;;;;;5062342;28;20098;-64
2022/07/31 06:20:35;;;;;;;19.27;13.70;;;31.30;99.90;;;;;;5062972;28;20107;-64
2022/07/31 06:23:02;;;;;;;20.05;12.20;;;31.40;99.90;;;;;;5063746;28;20090;-63
2022/07/31 06:25:29;;;;;;;99.55;72.75;;;31.50;99.90;;;;;;5062448;28;20016;-64
2022/07/31 06:27:55;;;;;;;214.02;153.05;;;31.70;99.90;;;;;;5062929;28;20016;-63
2022/07/31 06:30:22;;;;;;;76.50;57.40;;;31.90;99.90;;;;;;5063923;28;20027;-64
2022/07/31 06:32:48;;;;;;;47.90;34.15;;;32.10;99.90;;;;;;5062187;28;20051;-64
2022/07/31 06:35:15;;;;;;;36.97;25.02;;;32.20;99.90;;;;;;5064542;28;20487;-65
2022/07/31 06:37:41;;;;;;;38.17;24.48;;;32.00;99.90;;;;;;5063532;28;20053;-65
2022/07/31 06:40:08;;;;;;;21.48;14.10;;;31.80;99.90;;;;;;5055537;28;20047;-64
2022/07/31 06:42:35;;;;;;;31.00;17.02;;;31.70;99.90;;;;;;5064566;28;20033;-64
2022/07/31 06:45:01;;;;;;;23.27;14.85;;;31.50;99.90;;;;;;5065356;28;20012;-64
2022/07/31 06:47:29;;;;;;;17.38;13.25;;;31.40;99.90;;;;;;5063518;28;20048;-63
2022/07/31 06:49:55;;;;;;;20.33;12.70;;;31.40;99.90;;;;;;5062228;28;20036;-62
2022/07/31 06:52:22;;;;;;;24.27;13.45;;;31.40;99.90;;;;;;5062278;28;20028;-64
2022/07/31 06:54:49;;;;;;;32.78;18.85;;;31.60;99.90;;;;;;5063550;28;20377;-63
2022/07/31 06:57:15;;;;;;;24.65;13.50;;;31.80;99.90;;;;;;5061459;28;20035;-66
2022/07/31 06:59:42;;;;;;;19.48;12.40;;;31.90;99.90;;;;;;5064509;28;20048;-66
2022/07/31 07:02:09;;;;;;;20.42;12.70;;;32.10;99.90;;;;;;5065435;28;20028;-66
2022/07/31 07:04:35;;;;;;;18.55;12.27;;;32.20;99.90;;;;;;5066931;28;20017;-68
2022/07/31 07:07:02;;;;;;;26.00;13.15;;;32.20;99.90;;;;;;5064844;28;20012;-68
2022/07/31 07:09:29;;;;;;;16.75;11.95;;;32.10;99.90;;;;;;5077276;28;20021;-64
2022/07/31 07:11:55;;;;;;;23.02;13.65;;;32.10;99.90;;;;;;5077608;28;20017;-65
2022/07/31 07:14:22;;;;;;;20.98;13.27;;;32.10;99.90;;;;;;5077565;28;20423;-65
2022/07/31 07:16:48;;;;;;;30.98;12.25;;;31.90;99.90;;;;;;5077507;28;20066;-65
2022/07/31 07:19:15;;;;;;;21.02;13.25;;;31.70;99.90;;;;;;5077501;28;20024;-64
2022/07/31 07:21:41;;;;;;;21.38;10.65;;;31.50;99.90;;;;;;5077050;28;20094;-64
2022/07/31 07:24:08;;;;;;;20.73;12.10;;;31.40;99.90;;;;;;5077309;28;20074;-64
2022/07/31 07:26:35;;;;;;;22.65;12.95;;;31.40;99.90;;;;;;5077085;28;20470;-64
2022/07/31 07:29:01;;;;;;;20.33;14.52;;;31.50;99.90;;;;;;5073183;28;20100;-65
2022/07/31 07:31:28;;;;;;;23.38;14.50;;;31.60;99.90;;;;;;5066543;28;20024;-63
2022/07/31 07:33:55;;;;;;;21.85;12.20;;;31.80;99.90;;;;;;5073467;28;20036;-63
2022/07/31 07:36:22;;;;;;;15.88;9.80;;;32.00;99.90;;;;;;5057223;28;20107;-60
2022/07/31 07:38:49;;;;;;;11.82;6.45;;;32.10;99.90;;;;;;5055979;28;20192;-64
2022/07/31 07:41:16;;;;;;;8.57;6.82;;;32.00;99.90;;;;;;5057050;28;20021;-63
2022/07/31 07:43:42;;;;;;;16.25;7.93;;;31.90;99.90;;;;;;5066324;28;20028;-62
2022/07/31 07:46:09;;;;;;;11.90;7.53;;;32.10;99.90;;;;;;5065754;28;20039;-63
2022/07/31 07:48:35;;;;;;;12.80;8.07;;;32.20;99.90;;;;;;5065955;28;20036;-64
2022/07/31 07:51:02;;;;;;;12.65;8.15;;;32.10;99.90;;;;;;5066187;28;20103;-65
2022/07/31 07:53:28;;;;;;;13.93;7.90;;;32.00;99.90;;;;;;5064770;28;20021;-65
2022/07/31 07:55:55;;;;;;;12.88;9.00;;;31.90;99.90;;;;;;5065579;28;20052;-65
2022/07/31 07:58:22;;;;;;;14.68;8.10;;;31.70;99.90;;;;;;5067739;28;20032;-65
2022/07/31 08:00:48;;;;;;;13.27;7.82;;;31.70;99.90;;;;;;5065994;28;20013;-65
2022/07/31 08:03:15;;;;;;;11.57;7.15;;;31.70;99.90;;;;;;5065902;28;20177;-65
2022/07/31 08:05:42;;;;;;;11.50;6.63;;;31.70;99.90;;;;;;5062923;28;20045;-64
2022/07/31 08:08:08;;;;;;;15.38;7.00;;;31.60;99.90;;;;;;5062618;28;20043;-67
2022/07/31 08:10:38;;;;;;;17.92;9.95;;;31.50;99.90;;;;;;5066344;28;20047;-64
2022/07/31 08:13:05;;;;;;;33.63;19.38;;;31.50;99.90;;;;;;5063644;28;20029;-65
2022/07/31 08:15:31;;;;;;;25.38;15.77;;;31.50;99.90;;;;;;5062674;28;20021;-68
2022/07/31 08:17:58;;;;;;;27.75;16.73;;;31.60;99.90;;;;;;5068038;28;20037;-64
2022/07/31 08:20:24;;;;;;;54.78;34.85;;;31.70;99.90;;;;;;5066587;28;20033;-62
2022/07/31 08:22:52;;;;;;;27.42;14.48;;;31.80;99.90;;;;;;5067288;28;20059;-64
2022/07/31 08:25:18;;;;;;;34.58;21.25;;;31.80;99.90;;;;;;5065517;28;20019;-64
2022/07/31 08:27:45;;;;;;;22.63;13.32;;;31.70;99.90;;;;;;5068787;28;20025;-64
2022/07/31 08:30:11;;;;;;;19.95;11.05;;;31.90;99.90;;;;;;5065480;28;20110;-65
2022/07/31 08:32:38;;;;;;;19.38;12.43;;;32.00;99.90;;;;;;5066594;28;20021;-66
2022/07/31 08:35:05;;;;;;;45.97;21.65;;;32.10;99.90;;;;;;5066456;28;20025;-65
2022/07/31 08:37:32;;;;;;;25.40;14.10;;;32.10;99.90;;;;;;5069189;28;20032;-65
2022/07/31 08:39:58;;;;;;;31.05;16.65;;;32.10;99.90;;;;;;5063616;28;20029;-64
2022/07/31 08:42:25;;;;;;;160.20;76.82;;;32.20;99.90;;;;;;5060045;28;20033;-63
2022/07/31 08:44:52;;;;;;;33.20;20.30;;;32.30;99.90;;;;;;5071382;28;20024;-70
2022/07/31 08:47:21;;;;;;;28.98;14.88;;;32.40;99.90;;;;;;5068717;28;20056;-66
2022/07/31 08:49:49;;;;;;;23.45;11.93;;;32.20;99.90;;;;;;5065257;28;20060;-66
2022/07/31 08:52:20;;;;;;;18.88;10.45;;;32.20;99.90;;;;;;5065641;28;20537;-65
2022/07/31 08:54:49;;;;;;;17.63;11.38;;;32.20;99.90;;;;;;5072740;28;20037;-66
2022/07/31 08:57:15;;;;;;;30.23;17.75;;;32.00;99.90;;;;;;5075966;28;20028;-65
2022/07/31 08:59:42;;;;;;;25.98;13.93;;;32.00;99.90;;;;;;5075548;28;20027;-65
2022/07/31 09:02:10;;;;;;;21.35;13.48;;;31.90;99.90;;;;;;5075717;28;20032;-65
2022/07/31 09:04:36;;;;;;;18.88;11.70;;;31.90;99.90;;;;;;5076383;28;20088;-67
2022/07/31 09:07:03;;;;;;;23.85;12.00;;;31.80;99.90;;;;;;5075545;28;20020;-65
2022/07/31 09:09:30;;;;;;;19.88;12.70;;;31.80;99.90;;;;;;5076286;28;20086;-65
2022/07/31 09:11:57;;;;;;;18.73;12.40;;;31.80;99.90;;;;;;5076352;28;20017;-66
2022/07/31 09:14:28;;;;;;;18.70;12.48;;;31.70;99.90;;;;;;5076181;28;20386;-65
2022/07/31 09:16:55;;;;;;;19.85;11.82;;;31.70;99.90;;;;;;5052568;28;20433;-65
2022/07/31 09:19:24;;;;;;;24.58;13.70;;;31.70;99.90;;;;;;5055752;28;20086;-65
2022/07/31 09:21:51;;;;;;;28.90;15.10;;;31.60;99.90;;;;;;5055768;28;20028;-65
2022/07/31 09:24:32;;;;;;;27.70;15.18;;;31.60;99.90;;;;;;5064600;28;20186;-65
2022/07/31 09:27:08;;;;;;;92.90;73.60;;;31.60;99.90;;;;;;5059851;28;20462;-69
2022/07/31 09:29:37;;;;;;;61.30;48.67;;;31.50;99.90;;;;;;5060609;28;20466;-66
2022/07/31 09:32:14;;;;;;;41.75;30.77;;;31.50;99.90;;;;;;5065332;28;20016;-66
2022/07/31 09:34:42;;;;;;;84.60;67.15;;;31.50;99.90;;;;;;5062102;28;20020;-65
2022/07/31 09:37:19;;;;;;;63.97;45.45;;;31.60;99.90;;;;;;5066595;28;20477;-67
2022/07/31 09:39:52;;;;;;;94.78;66.60;;;31.60;99.90;;;;;;5062490;28;20469;-65
2022/07/31 09:42:19;;;;;;;135.05;105.07;;;31.60;99.90;;;;;;5064773;28;20103;-66
2022/07/31 09:44:47;;;;;;;44.53;25.17;;;31.60;99.90;;;;;;5064463;28;20028;-65
2022/07/31 09:47:31;;;;;;;32.92;22.27;;;31.60;99.90;;;;;;5061621;28;20481;-66
2022/07/31 09:49:59;;;;;;;36.05;21.73;;;31.60;99.90;;;;;;5064939;28;20123;-64
2022/07/31 09:52:27;;;;;;;42.45;27.30;;;31.60;99.90;;;;;;5060759;28;20063;-65
2022/07/31 09:54:59;;;;;;;45.67;27.77;;;31.50;99.90;;;;;;5068611;28;20032;-66
2022/07/31 09:57:25;;;;;;;41.03;23.33;;;31.50;99.90;;;;;;5064651;28;20428;-65
2022/07/31 09:59:52;;;;;;;33.83;20.67;;;31.50;99.90;;;;;;5064851;28;20071;-65
2022/07/31 10:02:20;;;;;;;127.60;95.28;;;31.50;99.90;;;;;;5063220;28;20094;-67
2022/07/31 10:04:49;;;;;;;122.78;92.65;;;31.50;99.90;;;;;;5065446;28;20971;-67
2022/07/31 10:07:17;;;;;;;46.42;29.10;;;31.50;99.90;;;;;;5067079;28;20021;-66
2022/07/31 10:09:44;;;;;;;58.67;39.45;;;31.50;99.90;;;;;;5067664;28;20526;-66
2022/07/31 10:12:14;;;;;;;95.65;76.93;;;31.30;99.90;;;;;;5067508;28;20024;-66
2022/07/31 10:14:44;;;;;;;59.88;43.40;;;31.30;99.90;;;;;;5057466;28;20557;-65
2022/07/31 10:17:13;;;;;;;73.45;47.95;;;31.20;99.90;;;;;;5071170;28;20087;-66
2022/07/31 10:19:46;;;;;;;44.53;26.98;;;31.20;99.90;;;;;;5065700;28;20025;-66
2022/07/31 10:22:18;;;;;;;38.72;24.65;;;31.10;99.90;;;;;;5062284;28;20466;-64
2022/07/31 10:24:51;;;;;;;62.78;46.35;;;31.00;99.90;;;;;;5062803;28;20084;-64
2022/07/31 10:27:18;;;;;;;72.85;41.53;;;31.00;99.90;;;;;;5065453;28;20373;-66
2022/07/31 10:29:45;;;;;;;50.90;25.38;;;31.00;99.90;;;;;;5064387;28;20448;-63
2022/07/31 10:32:12;;;;;;;41.10;22.65;;;30.90;99.90;;;;;;5063040;28;20039;-62
2022/07/31 10:34:39;;;;;;;38.78;21.98;;;30.90;99.90;;;;;;5063595;28;20496;-63
2022/07/31 10:37:14;;;;;;;36.80;20.65;;;30.80;99.90;;;;;;5065817;28;20055;-65
2022/07/31 10:39:43;;;;;;;37.67;19.73;;;30.80;99.90;;;;;;5063059;28;20031;-65
2022/07/31 10:42:12;;;;;;;39.65;20.70;;;30.80;99.90;;;;;;5060383;28;20029;-64
2022/07/31 10:44:45;;;;;;;41.55;25.48;;;30.80;99.90;;;;;;5062268;28;20017;-65
2022/07/31 10:47:15;;;;;;;42.03;29.98;;;30.80;99.90;;;;;;5060909;28;20044;-65
2022/07/31 10:49:44;;;;;;;61.72;39.90;;;30.70;99.90;;;;;;5066083;28;20032;-67
2022/07/31 10:52:10;;;;;;;67.10;40.00;;;30.70;99.90;;;;;;5063705;28;20023;-66
2022/07/31 10:54:43;;;;;;;48.60;32.92;;;30.60;99.90;;;;;;5062216;28;20427;-67
2022/07/31 10:57:22;;;;;;;55.55;32.92;;;30.60;99.90;;;;;;5061867;28;20382;-66
2022/07/31 10:59:49;;;;;;;55.63;28.52;;;30.60;99.90;;;;;;5062289;28;20055;-67
2022/07/31 11:02:28;;;;;;;51.70;28.98;;;30.60;99.90;;;;;;5062564;28;20044;-67
2022/07/31 11:05:10;;;;;;;47.20;26.20;;;30.60;99.90;;;;;;5063742;28;20031;-67
2022/07/31 11:07:36;;;;;;;55.50;30.55;;;30.40;99.90;;;;;;5063413;28;20051;-67
2022/07/31 11:10:18;;;;;;;57.38;31.70;;;30.40;99.90;;;;;;5061216;28;20021;-66
2022/07/31 11:12:45;;;;;;;88.97;46.63;;;30.40;99.90;;;;;;5063642;28;20028;-66
2022/07/31 11:15:20;;;;;;;143.18;87.40;;;30.40;99.90;;;;;;5060869;28;20051;-63
2022/07/31 11:17:46;;;;;;;138.88;84.75;;;30.40;99.90;;;;;;5063811;28;20044;-65
2022/07/31 11:20:18;;;;;;;97.22;66.53;;;30.50;99.90;;;;;;5063503;28;20021;-64
2022/07/31 11:22:53;;;;;;;104.07;63.50;;;30.40;99.90;;;;;;5060861;28;20389;-65
2022/07/31 11:25:21;;;;;;;103.03;63.53;;;30.40;99.90;;;;;;5061062;28;20028;-64
2022/07/31 11:27:48;;;;;;;73.15;42.38;;;30.40;99.90;;;;;;5063542;28;20025;-64
2022/07/31 11:30:15;;;;;;;67.93;37.28;;;30.40;99.90;;;;;;5063364;28;20055;-64
2022/07/31 11:32:48;;;;;;;59.72;33.15;;;30.40;99.90;;;;;;5066650;28;20060;-64
2022/07/31 11:35:28;;;;;;;56.65;32.50;;;30.40;99.90;;;;;;5052901;28;20482;-64
2022/07/31 11:37:57;;;;;;;49.22;30.15;;;30.40;99.90;;;;;;5052555;28;20112;-65
2022/07/31 11:40:24;;;;;;;56.67;29.52;;;30.40;99.90;;;;;;5052910;28;20033;-65
2022/07/31 11:42:50;;;;;;;47.67;26.90;;;30.30;99.90;;;;;;5072465;28;20073;-64
2022/07/31 11:45:17;;;;;;;46.08;27.38;;;30.30;99.90;;;;;;5092571;22;20139;-63
2022/07/31 11:47:45;;;;;;;51.03;26.27;;;30.20;99.90;;;;;;5073805;28;20092;-64
2022/07/31 11:50:12;;;;;;;45.08;25.25;;;30.20;99.90;;;;;;5076608;28;20058;-65
2022/07/31 11:52:42;;;;;;;47.97;28.25;;;30.20;99.90;;;;;;5072650;28;20453;-64
2022/07/31 11:55:12;;;;;;;46.80;23.27;;;30.30;99.90;;;;;;5064497;28;20482;-64
2022/07/31 11:57:40;;;;;;;50.65;27.48;;;30.20;99.90;;;;;;5070760;28;20027;-63
2022/07/31 12:00:13;;;;;;;38.33;23.65;;;30.10;99.90;;;;;;5066148;28;20016;-64
2022/07/31 12:02:43;;;;;;;62.33;44.60;;;30.10;99.90;;;;;;5065381;28;20500;-64
2022/07/31 12:05:12;;;;;;;87.00;62.88;;;30.10;99.90;;;;;;5063894;28;20082;-64
2022/07/31 12:07:42;;;;;;;71.93;48.55;;;30.10;99.90;;;;;;5065496;28;20140;-64
2022/07/31 12:10:12;;;;;;;53.78;36.08;;;30.10;99.90;;;;;;5067005;28;20369;-64
2022/07/31 12:12:41;;;;;;;44.42;25.17;;;30.10;99.90;;;;;;5065697;28;20166;-64
2022/07/31 12:15:17;;;;;;;40.53;24.92;;;30.20;99.90;;;;;;5065731;28;20029;-64
2022/07/31 12:17:44;;;;;;;56.28;31.45;;;30.30;99.90;;;;;;5063367;28;20033;-64
2022/07/31 12:20:12;;;;;;;70.53;35.72;;;30.30;99.90;;;;;;5066563;28;20385;-65
2022/07/31 12:22:40;;;;;;;60.22;33.38;;;30.10;99.90;;;;;;5064617;28;20388;-63
2022/07/31 12:25:11;;;;;;;51.13;26.65;;;30.00;99.90;;;;;;5065906;28;20458;-63
2022/07/31 12:27:38;;;;;;;48.45;26.50;;;30.00;99.90;;;;;;5062968;28;20024;-64
2022/07/31 12:30:10;;;;;;;43.38;23.15;;;30.00;99.90;;;;;;5069013;28;20025;-65